Aviation Digital Data Service (ADDS)

Output produced by METARs form (0242 UTC 24 July 2017)
found at http://www.aviationweather.gov/adds/metars/
 
TAF EGYP 240129Z 2403/2421 27015KT 9999 SCT030 
     PROB30 
     TEMPO 2403/2406 SCT022 
     BECMG 2409/2412 31015KT 
     PROB30 
     TEMPO 2415/2418 31020G30KT